sensor_id;sensor_type;location;lat;lon;timestamp;pressure;altitude;pressure_sealevel;temperature;humidity
60417;BME280;46263;44.726;10.396;2023-12-07T00:00:17;100550.44;;;7.61;62.28
60417;BME280;46263;44.726;10.396;2023-12-07T00:02:43;100548.66;;;7.64;61.97
60417;BME280;46263;44.726;10.396;2023-12-07T00:05:08;100554.25;;;7.69;62.16
60417;BME280;46263;44.726;10.396;2023-12-07T00:07:34;100558.81;;;7.67;62.22
60417;BME280;46263;44.726;10.396;2023-12-07T00:09:59;100552.28;;;7.75;62.54
60417;BME280;46263;44.726;10.396;2023-12-07T00:12:25;100551.81;;;7.82;61.95
60417;BME280;46263;44.726;10.396;2023-12-07T00:14:50;100556.91;;;7.89;62.05
60417;BME280;46263;44.726;10.396;2023-12-07T00:17:16;100552.34;;;7.91;62.06
60417;BME280;46263;44.726;10.396;2023-12-07T00:19:41;100555.84;;;7.81;61.95
60417;BME280;46263;44.726;10.396;2023-12-07T00:22:07;100562.91;;;7.77;62.38
60417;BME280;46263;44.726;10.396;2023-12-07T00:24:32;100568.16;;;7.69;62.63
60417;BME280;46263;44.726;10.396;2023-12-07T00:26:58;100561.56;;;7.61;62.87
60417;BME280;46263;44.726;10.396;2023-12-07T00:29:23;100564.66;;;7.74;62.38
60417;BME280;46263;44.726;10.396;2023-12-07T00:31:49;100568.22;;;7.80;62.26
60417;BME280;46263;44.726;10.396;2023-12-07T00:34:14;100574.06;;;7.82;61.91
60417;BME280;46263;44.726;10.396;2023-12-07T00:36:43;100577.63;;;7.88;61.60
60417;BME280;46263;44.726;10.396;2023-12-07T00:39:09;100574.06;;;7.82;61.94
60417;BME280;46263;44.726;10.396;2023-12-07T00:41:34;100576.19;;;7.56;62.81
60417;BME280;46263;44.726;10.396;2023-12-07T00:44:00;100571.91;;;7.55;62.57
60417;BME280;46263;44.726;10.396;2023-12-07T00:46:25;100574.63;;;7.50;63.04
60417;BME280;46263;44.726;10.396;2023-12-07T00:48:51;100576.66;;;7.49;63.29
60417;BME280;46263;44.726;10.396;2023-12-07T00:51:17;100571.56;;;7.42;62.85
60417;BME280;46263;44.726;10.396;2023-12-07T00:53:42;100577.66;;;7.46;63.14
60417;BME280;46263;44.726;10.396;2023-12-07T00:56:08;100580.75;;;7.59;62.44
60417;BME280;46263;44.726;10.396;2023-12-07T00:58:33;100574.28;;;7.73;61.98
60417;BME280;46263;44.726;10.396;2023-12-07T01:00:59;100577.31;;;7.75;61.74
60417;BME280;46263;44.726;10.396;2023-12-07T01:03:25;100583.56;;;7.65;61.45
60417;BME280;46263;44.726;10.396;2023-12-07T01:05:51;100595.31;;;7.38;61.77
60417;BME280;46263;44.726;10.396;2023-12-07T01:08:16;100585.38;;;7.31;62.18
60417;BME280;46263;44.726;10.396;2023-12-07T01:10:42;100595.97;;;6.97;63.05
60417;BME280;46263;44.726;10.396;2023-12-07T01:13:07;100598.41;;;6.84;62.79
60417;BME280;46263;44.726;10.396;2023-12-07T01:15:32;100600.34;;;7.03;62.78
60417;BME280;46263;44.726;10.396;2023-12-07T01:17:58;100600.09;;;7.07;62.93
60417;BME280;46263;44.726;10.396;2023-12-07T01:20:23;100596.13;;;7.13;63.10
60417;BME280;46263;44.726;10.396;2023-12-07T01:22:49;100611.56;;;7.19;62.64
60417;BME280;46263;44.726;10.396;2023-12-07T01:25:15;100615.91;;;7.26;62.41
60417;BME280;46263;44.726;10.396;2023-12-07T01:27:45;100609.84;;;7.27;62.40
60417;BME280;46263;44.726;10.396;2023-12-07T01:30:10;100610.19;;;7.35;62.29
60417;BME280;46263;44.726;10.396;2023-12-07T01:32:36;100619.13;;;7.50;61.92
60417;BME280;46263;44.726;10.396;2023-12-07T01:35:02;100617.16;;;7.61;62.40
60417;BME280;46263;44.726;10.396;2023-12-07T01:37:28;100623.50;;;7.62;61.67
60417;BME280;46263;44.726;10.396;2023-12-07T01:39:54;100627.31;;;7.64;61.66
60417;BME280;46263;44.726;10.396;2023-12-07T01:42:20;100632.38;;;7.66;61.83
60417;BME280;46263;44.726;10.396;2023-12-07T01:44:45;100625.31;;;7.70;61.03
60417;BME280;46263;44.726;10.396;2023-12-07T01:47:11;100630.84;;;7.65;61.27
60417;BME280;46263;44.726;10.396;2023-12-07T01:49:37;100624.56;;;7.70;60.82
60417;BME280;46263;44.726;10.396;2023-12-07T01:52:04;100618.47;;;7.66;60.91
60417;BME280;46263;44.726;10.396;2023-12-07T01:54:30;100626.34;;;7.67;61.07
60417;BME280;46263;44.726;10.396;2023-12-07T01:56:56;100627.03;;;7.62;60.83
60417;BME280;46263;44.726;10.396;2023-12-07T01:59:23;100622.72;;;7.61;60.61
60417;BME280;46263;44.726;10.396;2023-12-07T02:01:49;100634.63;;;7.62;60.61
60417;BME280;46263;44.726;10.396;2023-12-07T02:04:16;100631.88;;;7.67;61.30
60417;BME280;46263;44.726;10.396;2023-12-07T02:06:42;100641.13;;;7.53;60.92
60417;BME280;46263;44.726;10.396;2023-12-07T02:09:07;100628.75;;;7.54;61.15
60417;BME280;46263;44.726;10.396;2023-12-07T02:11:34;100634.31;;;7.54;61.33
60417;BME280;46263;44.726;10.396;2023-12-07T02:14:00;100631.72;;;7.45;61.21
60417;BME280;46263;44.726;10.396;2023-12-07T02:16:56;100624.91;;;7.46;61.12
60417;BME280;46263;44.726;10.396;2023-12-07T02:19:49;100631.22;;;7.41;60.18
60417;BME280;46263;44.726;10.396;2023-12-07T02:22:22;100629.13;;;7.36;60.51
60417;BME280;46263;44.726;10.396;2023-12-07T02:25:04;100629.34;;;7.33;60.47
60417;BME280;46263;44.726;10.396;2023-12-07T02:27:40;100625.91;;;7.12;60.71
60417;BME280;46263;44.726;10.396;2023-12-07T02:30:10;100639.44;;;7.00;61.15
60417;BME280;46263;44.726;10.396;2023-12-07T02:32:41;100630.09;;;6.97;61.52
60417;BME280;46263;44.726;10.396;2023-12-07T02:35:08;100624.31;;;7.01;61.62
60417;BME280;46263;44.726;10.396;2023-12-07T02:38:05;100629.75;;;6.90;62.00
60417;BME280;46263;44.726;10.396;2023-12-07T02:40:31;100624.19;;;6.90;61.76
60417;BME280;46263;44.726;10.396;2023-12-07T02:42:57;100620.81;;;7.06;61.20
60417;BME280;46263;44.726;10.396;2023-12-07T02:45:25;100625.47;;;7.19;60.67
60417;BME280;46263;44.726;10.396;2023-12-07T02:47:51;100620.09;;;7.11;61.04
60417;BME280;46263;44.726;10.396;2023-12-07T02:50:17;100625.56;;;7.30;60.25
60417;BME280;46263;44.726;10.396;2023-12-07T02:52:42;100623.06;;;7.32;59.91
60417;BME280;46263;44.726;10.396;2023-12-07T02:55:08;100626.44;;;7.47;59.51
60417;BME280;46263;44.726;10.396;2023-12-07T02:57:34;100625.84;;;7.32;60.05
60417;BME280;46263;44.726;10.396;2023-12-07T03:00:00;100630.66;;;7.37;60.28
60417;BME280;46263;44.726;10.396;2023-12-07T03:02:26;100628.66;;;7.38;59.72
60417;BME280;46263;44.726;10.396;2023-12-07T03:04:52;100641.31;;;7.44;60.01
60417;BME280;46263;44.726;10.396;2023-12-07T03:07:18;100637.97;;;7.35;59.81
60417;BME280;46263;44.726;10.396;2023-12-07T03:09:43;100640.00;;;7.34;60.38
60417;BME280;46263;44.726;10.396;2023-12-07T03:12:09;100636.44;;;7.34;59.86
60417;BME280;46263;44.726;10.396;2023-12-07T03:14:34;100642.69;;;7.23;60.27
60417;BME280;46263;44.726;10.396;2023-12-07T03:17:00;100640.09;;;7.14;60.15
60417;BME280;46263;44.726;10.396;2023-12-07T03:19:25;100641.88;;;7.17;60.52
60417;BME280;46263;44.726;10.396;2023-12-07T03:21:51;100641.72;;;7.26;60.09
60417;BME280;46263;44.726;10.396;2023-12-07T03:24:16;100640.19;;;7.25;60.29
60417;BME280;46263;44.726;10.396;2023-12-07T03:26:42;100641.38;;;7.19;60.98
60417;BME280;46263;44.726;10.396;2023-12-07T03:29:07;100645.50;;;7.29;60.72
60417;BME280;46263;44.726;10.396;2023-12-07T03:31:33;100641.22;;;7.28;60.45
60417;BME280;46263;44.726;10.396;2023-12-07T03:33:58;100648.06;;;7.32;60.22
60417;BME280;46263;44.726;10.396;2023-12-07T03:36:26;100642.22;;;7.30;60.47
60417;BME280;46263;44.726;10.396;2023-12-07T03:38:52;100644.22;;;7.24;60.20
60417;BME280;46263;44.726;10.396;2023-12-07T03:41:17;100651.59;;;7.33;60.39
60417;BME280;46263;44.726;10.396;2023-12-07T03:43:43;100644.78;;;7.34;60.29
60417;BME280;46263;44.726;10.396;2023-12-07T03:46:08;100655.63;;;7.32;60.09
60417;BME280;46263;44.726;10.396;2023-12-07T03:48:34;100658.38;;;7.26;59.79
60417;BME280;46263;44.726;10.396;2023-12-07T03:51:00;100655.66;;;7.07;59.86
60417;BME280;46263;44.726;10.396;2023-12-07T03:53:26;100659.81;;;6.91;60.13
60417;BME280;46263;44.726;10.396;2023-12-07T03:55:52;100659.16;;;6.76;60.63
60417;BME280;46263;44.726;10.396;2023-12-07T03:58:17;100658.94;;;6.80;60.20
60417;BME280;46263;44.726;10.396;2023-12-07T04:00:44;100658.38;;;6.50;60.70
60417;BME280;46263;44.726;10.396;2023-12-07T04:03:10;100661.25;;;6.36;61.30
60417;BME280;46263;44.726;10.396;2023-12-07T04:05:35;100661.09;;;6.45;61.14
60417;BME280;46263;44.726;10.396;2023-12-07T04:08:01;100657.47;;;6.59;60.68
60417;BME280;46263;44.726;10.396;2023-12-07T04:10:26;100662.97;;;6.53;61.07
60417;BME280;46263;44.726;10.396;2023-12-07T04:12:52;100665.22;;;6.55;60.58
60417;BME280;46263;44.726;10.396;2023-12-07T04:15:21;100665.66;;;6.48;60.47
60417;BME280;46263;44.726;10.396;2023-12-07T04:17:46;100670.03;;;6.54;61.25
60417;BME280;46263;44.726;10.396;2023-12-07T04:20:12;100674.41;;;6.61;60.27
60417;BME280;46263;44.726;10.396;2023-12-07T04:22:39;100688.72;;;6.54;60.51
60417;BME280;46263;44.726;10.396;2023-12-07T04:25:05;100688.53;;;6.63;60.22
60417;BME280;46263;44.726;10.396;2023-12-07T04:27:31;100685.50;;;6.61;60.37
60417;BME280;46263;44.726;10.396;2023-12-07T04:29:57;100689.31;;;6.43;60.94
60417;BME280;46263;44.726;10.396;2023-12-07T04:32:23;100688.44;;;6.32;61.02
60417;BME280;46263;44.726;10.396;2023-12-07T04:34:49;100692.81;;;6.38;61.25
60417;BME280;46263;44.726;10.396;2023-12-07T04:37:15;100697.72;;;6.49;60.57
60417;BME280;46263;44.726;10.396;2023-12-07T04:39:40;100700.38;;;6.38;60.67
60417;BME280;46263;44.726;10.396;2023-12-07T04:42:06;100695.66;;;6.44;60.33
60417;BME280;46263;44.726;10.396;2023-12-07T04:44:31;100707.31;;;6.48;60.20
60417;BME280;46263;44.726;10.396;2023-12-07T04:46:57;100709.88;;;6.51;60.27
60417;BME280;46263;44.726;10.396;2023-12-07T04:49:23;100709.03;;;6.65;60.44
60417;BME280;46263;44.726;10.396;2023-12-07T04:51:48;100709.22;;;6.82;60.32
60417;BME280;46263;44.726;10.396;2023-12-07T04:54:14;100707.53;;;6.90;59.62
60417;BME280;46263;44.726;10.396;2023-12-07T04:56:40;100712.88;;;6.93;59.61
60417;BME280;46263;44.726;10.396;2023-12-07T04:59:06;100710.31;;;6.90;59.50
60417;BME280;46263;44.726;10.396;2023-12-07T05:01:31;100723.22;;;6.93;59.17
60417;BME280;46263;44.726;10.396;2023-12-07T05:03:57;100727.03;;;6.95;59.43
60417;BME280;46263;44.726;10.396;2023-12-07T05:06:23;100725.84;;;7.02;58.86
60417;BME280;46263;44.726;10.396;2023-12-07T05:08:48;100725.84;;;7.02;58.87
60417;BME280;46263;44.726;10.396;2023-12-07T05:11:14;100737.72;;;7.02;58.92
60417;BME280;46263;44.726;10.396;2023-12-07T05:13:39;100731.63;;;6.98;58.53
60417;BME280;46263;44.726;10.396;2023-12-07T05:16:05;100724.63;;;6.83;58.93
60417;BME280;46263;44.726;10.396;2023-12-07T05:18:31;100723.97;;;6.68;59.67
60417;BME280;46263;44.726;10.396;2023-12-07T05:20:56;100731.50;;;6.67;59.18
60417;BME280;46263;44.726;10.396;2023-12-07T05:23:22;100732.44;;;6.59;59.27
60417;BME280;46263;44.726;10.396;2023-12-07T05:25:47;100726.88;;;6.59;59.89
60417;BME280;46263;44.726;10.396;2023-12-07T05:28:13;100725.06;;;6.76;59.01
60417;BME280;46263;44.726;10.396;2023-12-07T05:30:38;100728.34;;;6.74;59.09
60417;BME280;46263;44.726;10.396;2023-12-07T05:33:04;100735.00;;;6.62;59.09
60417;BME280;46263;44.726;10.396;2023-12-07T05:35:29;100722.31;;;6.36;60.08
60417;BME280;46263;44.726;10.396;2023-12-07T05:37:55;100721.09;;;6.42;59.38
60417;BME280;46263;44.726;10.396;2023-12-07T05:40:20;100727.31;;;6.52;59.59
60417;BME280;46263;44.726;10.396;2023-12-07T05:42:50;100727.72;;;6.45;59.67
60417;BME280;46263;44.726;10.396;2023-12-07T05:45:16;100725.41;;;6.43;59.38
60417;BME280;46263;44.726;10.396;2023-12-07T05:47:41;100733.31;;;6.31;60.04
60417;BME280;46263;44.726;10.396;2023-12-07T05:50:07;100731.78;;;6.30;60.25
60417;BME280;46263;44.726;10.396;2023-12-07T05:52:33;100734.78;;;6.26;59.69
60417;BME280;46263;44.726;10.396;2023-12-07T05:54:59;100736.59;;;6.49;59.44
60417;BME280;46263;44.726;10.396;2023-12-07T05:57:24;100736.72;;;6.60;59.19
60417;BME280;46263;44.726;10.396;2023-12-07T05:59:50;100741.28;;;6.63;58.87
60417;BME280;46263;44.726;10.396;2023-12-07T06:02:16;100739.97;;;6.58;59.02
60417;BME280;46263;44.726;10.396;2023-12-07T06:04:41;100743.69;;;6.70;59.02
60417;BME280;46263;44.726;10.396;2023-12-07T06:07:07;100743.41;;;6.68;58.88
60417;BME280;46263;44.726;10.396;2023-12-07T06:09:32;100745.13;;;6.45;59.08
60417;BME280;46263;44.726;10.396;2023-12-07T06:11:58;100744.75;;;6.18;59.65
60417;BME280;46263;44.726;10.396;2023-12-07T06:14:24;100750.31;;;6.18;60.32
60417;BME280;46263;44.726;10.396;2023-12-07T06:16:49;100754.44;;;6.08;60.26
60417;BME280;46263;44.726;10.396;2023-12-07T06:19:15;100751.91;;;6.25;59.78
60417;BME280;46263;44.726;10.396;2023-12-07T06:21:40;100750.03;;;6.16;59.38
60417;BME280;46263;44.726;10.396;2023-12-07T06:24:06;100758.53;;;6.13;59.60
60417;BME280;46263;44.726;10.396;2023-12-07T06:26:32;100758.06;;;6.14;59.33
60417;BME280;46263;44.726;10.396;2023-12-07T06:28:58;100758.25;;;6.11;59.89
60417;BME280;46263;44.726;10.396;2023-12-07T06:31:24;100760.38;;;6.16;59.93
60417;BME280;46263;44.726;10.396;2023-12-07T06:33:50;100765.72;;;6.19;59.79
60417;BME280;46263;44.726;10.396;2023-12-07T06:36:20;100775.81;;;6.22;59.68
60417;BME280;46263;44.726;10.396;2023-12-07T06:38:46;100769.31;;;6.25;59.44
60417;BME280;46263;44.726;10.396;2023-12-07T06:41:12;100780.19;;;6.09;59.69
60417;BME280;46263;44.726;10.396;2023-12-07T06:43:37;100789.38;;;6.00;60.31
60417;BME280;46263;44.726;10.396;2023-12-07T06:46:03;100792.03;;;6.09;59.88
60417;BME280;46263;44.726;10.396;2023-12-07T06:48:29;100798.81;;;6.08;59.70
60417;BME280;46263;44.726;10.396;2023-12-07T06:50:54;100801.78;;;6.19;59.17
60417;BME280;46263;44.726;10.396;2023-12-07T06:53:20;100799.00;;;6.19;59.05
60417;BME280;46263;44.726;10.396;2023-12-07T06:55:45;100803.06;;;6.38;58.92
60417;BME280;46263;44.726;10.396;2023-12-07T06:58:11;100805.06;;;6.37;58.43
60417;BME280;46263;44.726;10.396;2023-12-07T07:00:37;100803.69;;;6.47;58.35
60417;BME280;46263;44.726;10.396;2023-12-07T07:03:02;100805.78;;;6.52;58.73
60417;BME280;46263;44.726;10.396;2023-12-07T07:05:28;100798.66;;;6.66;58.06
60417;BME280;46263;44.726;10.396;2023-12-07T07:07:53;100813.28;;;6.86;59.09
60417;BME280;46263;44.726;10.396;2023-12-07T07:10:21;100820.16;;;6.91;59.21
60417;BME280;46263;44.726;10.396;2023-12-07T07:12:46;100822.53;;;6.98;58.96
60417;BME280;46263;44.726;10.396;2023-12-07T07:15:12;100833.06;;;6.74;58.07
60417;BME280;46263;44.726;10.396;2023-12-07T07:17:38;100843.78;;;6.81;57.72
60417;BME280;46263;44.726;10.396;2023-12-07T07:20:04;100842.88;;;6.69;58.18
60417;BME280;46263;44.726;10.396;2023-12-07T07:22:29;100843.06;;;6.66;58.56
60417;BME280;46263;44.726;10.396;2023-12-07T07:24:55;100846.38;;;6.50;59.13
60417;BME280;46263;44.726;10.396;2023-12-07T07:27:20;100843.31;;;6.48;58.66
60417;BME280;46263;44.726;10.396;2023-12-07T07:29:46;100848.88;;;6.48;58.97
60417;BME280;46263;44.726;10.396;2023-12-07T07:32:11;100848.94;;;6.53;58.84
60417;BME280;46263;44.726;10.396;2023-12-07T07:34:37;100852.94;;;6.67;59.19
60417;BME280;46263;44.726;10.396;2023-12-07T07:37:03;100853.44;;;6.65;59.79
60417;BME280;46263;44.726;10.396;2023-12-07T07:39:29;100851.44;;;6.86;58.93
60417;BME280;46263;44.726;10.396;2023-12-07T07:41:54;100854.03;;;6.95;59.34
60417;BME280;46263;44.726;10.396;2023-12-07T07:44:20;100854.97;;;7.06;58.66
60417;BME280;46263;44.726;10.396;2023-12-07T07:46:45;100856.41;;;7.21;58.82
60417;BME280;46263;44.726;10.396;2023-12-07T07:49:11;100858.59;;;7.37;58.35
60417;BME280;46263;44.726;10.396;2023-12-07T07:51:37;100867.00;;;7.43;58.51
60417;BME280;46263;44.726;10.396;2023-12-07T07:54:04;100876.69;;;7.27;58.04
60417;BME280;46263;44.726;10.396;2023-12-07T07:56:29;100873.22;;;7.32;57.63
60417;BME280;46263;44.726;10.396;2023-12-07T07:58:55;100873.31;;;7.43;57.77
60417;BME280;46263;44.726;10.396;2023-12-07T08:01:20;100874.25;;;7.60;57.36
60417;BME280;46263;44.726;10.396;2023-12-07T08:03:46;100877.22;;;7.77;58.10
60417;BME280;46263;44.726;10.396;2023-12-07T08:06:12;100879.63;;;7.89;58.26
60417;BME280;46263;44.726;10.396;2023-12-07T08:08:37;100884.03;;;8.01;58.62
60417;BME280;46263;44.726;10.396;2023-12-07T08:11:03;100884.56;;;8.05;58.56
60417;BME280;46263;44.726;10.396;2023-12-07T08:13:30;100884.13;;;8.12;57.97
60417;BME280;46263;44.726;10.396;2023-12-07T08:15:56;100891.44;;;8.09;56.40
60417;BME280;46263;44.726;10.396;2023-12-07T08:18:21;100893.72;;;8.11;55.69
60417;BME280;46263;44.726;10.396;2023-12-07T08:20:47;100901.78;;;8.03;56.49
60417;BME280;46263;44.726;10.396;2023-12-07T08:23:13;100896.59;;;7.91;56.66
60417;BME280;46263;44.726;10.396;2023-12-07T08:25:38;100901.72;;;7.98;56.67
60417;BME280;46263;44.726;10.396;2023-12-07T08:28:05;100904.88;;;8.11;56.10
60417;BME280;46263;44.726;10.396;2023-12-07T08:30:31;100911.84;;;8.01;56.68
60417;BME280;46263;44.726;10.396;2023-12-07T08:32:56;100915.25;;;8.10;56.44
60417;BME280;46263;44.726;10.396;2023-12-07T08:35:22;100920.28;;;8.32;56.57
60417;BME280;46263;44.726;10.396;2023-12-07T08:37:48;100915.97;;;8.36;57.21
60417;BME280;46263;44.726;10.396;2023-12-07T08:40:14;100921.88;;;8.44;57.24
60417;BME280;46263;44.726;10.396;2023-12-07T08:42:44;100925.56;;;8.61;57.31
60417;BME280;46263;44.726;10.396;2023-12-07T08:45:10;100931.72;;;8.75;57.18
60417;BME280;46263;44.726;10.396;2023-12-07T08:47:35;100919.13;;;8.85;57.32
60417;BME280;46263;44.726;10.396;2023-12-07T08:50:01;100922.75;;;8.97;57.58
60417;BME280;46263;44.726;10.396;2023-12-07T08:52:27;100926.09;;;9.06;56.90
60417;BME280;46263;44.726;10.396;2023-12-07T08:54:52;100921.06;;;9.10;55.50
60417;BME280;46263;44.726;10.396;2023-12-07T08:57:18;100920.75;;;9.03;55.50
60417;BME280;46263;44.726;10.396;2023-12-07T08:59:44;100915.28;;;9.19;55.46
60417;BME280;46263;44.726;10.396;2023-12-07T09:02:09;100915.31;;;9.30;55.13
60417;BME280;46263;44.726;10.396;2023-12-07T09:04:35;100917.00;;;9.17;54.68
60417;BME280;46263;44.726;10.396;2023-12-07T09:07:00;100922.81;;;9.13;55.06
60417;BME280;46263;44.726;10.396;2023-12-07T09:09:26;100927.31;;;8.94;55.53
60417;BME280;46263;44.726;10.396;2023-12-07T09:11:52;100930.66;;;9.04;56.87
60417;BME280;46263;44.726;10.396;2023-12-07T09:14:18;100938.34;;;9.20;55.70
60417;BME280;46263;44.726;10.396;2023-12-07T09:16:44;100931.28;;;9.30;56.88
60417;BME280;46263;44.726;10.396;2023-12-07T09:19:11;100940.56;;;9.10;57.07
60417;BME280;46263;44.726;10.396;2023-12-07T09:21:38;100937.78;;;9.10;56.98
60417;BME280;46263;44.726;10.396;2023-12-07T09:24:04;100941.13;;;9.20;57.44
60417;BME280;46263;44.726;10.396;2023-12-07T09:26:31;100943.50;;;9.38;57.62
60417;BME280;46263;44.726;10.396;2023-12-07T09:28:56;100940.97;;;9.45;57.15
60417;BME280;46263;44.726;10.396;2023-12-07T09:31:22;100951.13;;;9.43;57.37
60417;BME280;46263;44.726;10.396;2023-12-07T09:33:47;100945.84;;;9.55;57.78
60417;BME280;46263;44.726;10.396;2023-12-07T09:36:16;100946.72;;;9.89;56.88
60417;BME280;46263;44.726;10.396;2023-12-07T09:38:43;100943.97;;;10.11;56.27
60417;BME280;46263;44.726;10.396;2023-12-07T09:41:09;100937.66;;;10.32;56.06
60417;BME280;46263;44.726;10.396;2023-12-07T09:43:35;100938.66;;;10.13;55.08
60417;BME280;46263;44.726;10.396;2023-12-07T09:46:00;100942.50;;;10.32;55.54
60417;BME280;46263;44.726;10.396;2023-12-07T09:48:26;100946.81;;;10.49;54.91
60417;BME280;46263;44.726;10.396;2023-12-07T09:50:52;100948.06;;;10.42;54.48
60417;BME280;46263;44.726;10.396;2023-12-07T09:53:20;100949.59;;;10.22;53.92
60417;BME280;46263;44.726;10.396;2023-12-07T09:55:46;100947.06;;;10.45;53.00
60417;BME280;46263;44.726;10.396;2023-12-07T09:58:12;100951.13;;;10.66;53.37
60417;BME280;46263;44.726;10.396;2023-12-07T10:00:37;100931.78;;;10.90;53.09
60417;BME280;46263;44.726;10.396;2023-12-07T10:03:03;100926.44;;;10.98;52.92
60417;BME280;46263;44.726;10.396;2023-12-07T10:05:33;100915.75;;;10.96;53.14
60417;BME280;46263;44.726;10.396;2023-12-07T10:07:59;100906.91;;;10.70;52.79
60417;BME280;46263;44.726;10.396;2023-12-07T10:10:25;100914.03;;;10.60;52.57
60417;BME280;46263;44.726;10.396;2023-12-07T10:12:56;100915.31;;;10.59;52.42
60417;BME280;46263;44.726;10.396;2023-12-07T10:15:24;100912.03;;;10.33;53.26
60417;BME280;46263;44.726;10.396;2023-12-07T10:17:55;100909.47;;;10.57;53.31
60417;BME280;46263;44.726;10.396;2023-12-07T10:20:27;100911.00;;;10.47;53.39
60417;BME280;46263;44.726;10.396;2023-12-07T10:23:09;100905.91;;;10.68;53.10
60417;BME280;46263;44.726;10.396;2023-12-07T10:25:39;100906.91;;;10.59;53.79
60417;BME280;46263;44.726;10.396;2023-12-07T10:28:07;100901.84;;;10.52;54.25
60417;BME280;46263;44.726;10.396;2023-12-07T10:30:36;100913.03;;;10.63;53.80
60417;BME280;46263;44.726;10.396;2023-12-07T10:33:03;100902.88;;;10.49;54.63
60417;BME280;46263;44.726;10.396;2023-12-07T10:35:29;100905.66;;;10.66;54.78
60417;BME280;46263;44.726;10.396;2023-12-07T10:37:55;100901.06;;;10.79;54.54
60417;BME280;46263;44.726;10.396;2023-12-07T10:40:21;100904.59;;;10.91;54.07
60417;BME280;46263;44.726;10.396;2023-12-07T10:42:55;100901.31;;;10.70;54.88
60417;BME280;46263;44.726;10.396;2023-12-07T10:45:26;100897.16;;;11.10;54.46
60417;BME280;46263;44.726;10.396;2023-12-07T10:48:00;100888.78;;;11.10;54.21
60417;BME280;46263;44.726;10.396;2023-12-07T10:50:29;100880.38;;;11.10;53.45
60417;BME280;46263;44.726;10.396;2023-12-07T10:52:57;100882.50;;;10.76;54.66
60417;BME280;46263;44.726;10.396;2023-12-07T10:55:47;100880.94;;;10.97;54.47
60417;BME280;46263;44.726;10.396;2023-12-07T10:58:14;100877.94;;;10.73;54.12
60417;BME280;46263;44.726;10.396;2023-12-07T11:00:44;100871.63;;;10.51;53.88
60417;BME280;46263;44.726;10.396;2023-12-07T11:03:14;100868.78;;;10.78;53.38
60417;BME280;46263;44.726;10.396;2023-12-07T11:05:42;100858.28;;;11.06;53.47
60417;BME280;46263;44.726;10.396;2023-12-07T11:08:09;100849.81;;;11.22;52.96
60417;BME280;46263;44.726;10.396;2023-12-07T11:10:45;100848.22;;;11.38;52.80
60417;BME280;46263;44.726;10.396;2023-12-07T11:13:17;100853.00;;;11.43;53.24
60417;BME280;46263;44.726;10.396;2023-12-07T11:15:44;100846.88;;;11.55;52.98
60417;BME280;46263;44.726;10.396;2023-12-07T11:18:10;100842.97;;;11.64;53.82
60417;BME280;46263;44.726;10.396;2023-12-07T11:20:40;100833.81;;;11.69;54.00
60417;BME280;46263;44.726;10.396;2023-12-07T11:23:10;100825.06;;;11.37;54.09
60417;BME280;46263;44.726;10.396;2023-12-07T11:25:36;100813.59;;;11.41;54.19
60417;BME280;46263;44.726;10.396;2023-12-07T11:28:04;100813.50;;;11.63;54.60
60417;BME280;46263;44.726;10.396;2023-12-07T11:30:35;100809.72;;;11.90;54.51
60417;BME280;46263;44.726;10.396;2023-12-07T11:33:03;100818.22;;;12.08;52.74
60417;BME280;46263;44.726;10.396;2023-12-07T11:35:29;100812.19;;;11.98;52.42
60417;BME280;46263;44.726;10.396;2023-12-07T11:38:07;100811.63;;;12.05;52.54
60417;BME280;46263;44.726;10.396;2023-12-07T11:40:43;100813.41;;;12.03;52.21
60417;BME280;46263;44.726;10.396;2023-12-07T11:43:36;100811.03;;;12.12;52.69
60417;BME280;46263;44.726;10.396;2023-12-07T11:46:03;100813.84;;;12.12;52.43
60417;BME280;46263;44.726;10.396;2023-12-07T11:48:29;100806.66;;;12.17;52.48
60417;BME280;46263;44.726;10.396;2023-12-07T11:53:27;100807.06;;;12.02;54.24
60417;BME280;46263;44.726;10.396;2023-12-07T11:55:55;100800.50;;;12.24;53.63
60417;BME280;46263;44.726;10.396;2023-12-07T11:58:21;100798.63;;;12.32;54.28
60417;BME280;46263;44.726;10.396;2023-12-07T12:00:47;100800.78;;;12.20;55.51
60417;BME280;46263;44.726;10.396;2023-12-07T12:03:14;100800.22;;;11.98;55.30
60417;BME280;46263;44.726;10.396;2023-12-07T12:05:41;100799.69;;;12.29;55.24
60417;BME280;46263;44.726;10.396;2023-12-07T12:08:06;100806.19;;;12.42;54.45
60417;BME280;46263;44.726;10.396;2023-12-07T12:10:32;100807.06;;;12.56;54.70
60417;BME280;46263;44.726;10.396;2023-12-07T12:13:02;100799.59;;;12.64;55.01
60417;BME280;46263;44.726;10.396;2023-12-07T12:15:29;100790.78;;;12.72;53.98
60417;BME280;46263;44.726;10.396;2023-12-07T12:17:58;100796.88;;;12.76;54.00
60417;BME280;46263;44.726;10.396;2023-12-07T12:20:25;100789.41;;;12.84;53.76
60417;BME280;46263;44.726;10.396;2023-12-07T12:22:51;100773.09;;;12.83;54.79
60417;BME280;46263;44.726;10.396;2023-12-07T12:25:23;100780.59;;;12.99;53.30
60417;BME280;46263;44.726;10.396;2023-12-07T12:27:53;100777.91;;;13.06;53.32
60417;BME280;46263;44.726;10.396;2023-12-07T12:30:19;100781.63;;;12.72;52.56
60417;BME280;46263;44.726;10.396;2023-12-07T12:32:46;100793.47;;;12.83;52.70
60417;BME280;46263;44.726;10.396;2023-12-07T12:35:13;100782.25;;;12.83;52.31
60417;BME280;46263;44.726;10.396;2023-12-07T12:37:44;100787.34;;;12.85;52.07
60417;BME280;46263;44.726;10.396;2023-12-07T12:40:15;100788.13;;;12.62;53.66
60417;BME280;46263;44.726;10.396;2023-12-07T12:42:48;100790.94;;;12.62;53.84
60417;BME280;46263;44.726;10.396;2023-12-07T12:45:15;100796.38;;;12.54;53.40
60417;BME280;46263;44.726;10.396;2023-12-07T12:47:41;100800.34;;;12.64;53.75